Terminal Aerodrome Forecast
Issued by NWS

Home | Current Version | Previous Version | Text Only | Print | Product List | Glossary On
Versions: 1 2 3 4 5 6 7 8 9 10 11 12 13 14
444
FTUS41 KBTV 170530
TAFRUT
TAF
KRUT 170530Z 1706/1806 00000KT P6SM FEW250
     FM180500 VRB03KT P6SM VCSH BKN050=

USA.gov is the U.S. government's official web portal to all federal, state and local government web resources and services.